Meteorología y climatología de Navarra
Datos de la estación - Meteo Navarra

Estación de Iñarbegi GN

Altitud 585 m.


Datos desde el 07/12/2018 hasta el 08/12/2018 en horario solar
Los datos son PROVISIONALES

Anterior Página 1 de 1 Siguiente Descargar: Formato para Excel 2000 o superior   Formato csv   Formato para OpenOffice Calc
Fecha Temperatura Humedad relativa Radiación global Insolación Precipitación Velocidad viento 10 m Velocidad viento 10 m Dirección viento 10 m
ºC % W/m² s l/m² m/s km/h º
07/12/2018 0:00 8.7 79 - - - - 0.0 - - - - - -
07/12/2018 0:10 8.6 80 - - - - 0.0 - - - - - -
07/12/2018 0:20 8.7 80 - - - - 0.0 - - - - - -
07/12/2018 0:30 8.7 80 - - - - 0.0 - - - - - -
07/12/2018 0:40 8.7 78 - - - - 0.0 - - - - - -
07/12/2018 0:50 8.7 76 - - - - 0.0 - - - - - -
07/12/2018 1:00 8.6 77 - - - - 0.0 - - - - - -
07/12/2018 1:10 8.6 76 - - - - 0.0 - - - - - -
07/12/2018 1:20 8.7 74 - - - - 0.0 - - - - - -
07/12/2018 1:30 8.5 75 - - - - 0.0 - - - - - -
07/12/2018 1:40 8.2 75 - - - - 0.0 - - - - - -
07/12/2018 1:50 8.0 76 - - - - 0.0 - - - - - -
07/12/2018 2:00 7.4 81 - - - - 0.0 - - - - - -
07/12/2018 2:10 7.0 82 - - - - 0.0 - - - - - -
07/12/2018 2:20 6.7 81 - - - - 0.0 - - - - - -
07/12/2018 2:30 6.1 83 - - - - 0.0 - - - - - -
07/12/2018 2:40 5.8 84 - - - - 0.0 - - - - - -
07/12/2018 2:50 5.5 85 - - - - 0.0 - - - - - -
07/12/2018 3:00 5.4 87 - - - - 0.0 - - - - - -
07/12/2018 3:10 5.5 86 - - - - 0.0 - - - - - -
07/12/2018 3:20 5.3 86 - - - - 0.0 - - - - - -
07/12/2018 3:30 4.9 88 - - - - 0.0 - - - - - -
07/12/2018 3:40 5.3 87 - - - - 0.0 - - - - - -
07/12/2018 3:50 5.0 87 - - - - 0.0 - - - - - -
07/12/2018 4:00 4.5 89 - - - - 0.0 - - - - - -
07/12/2018 4:10 4.5 91 - - - - 0.0 - - - - - -
07/12/2018 4:20 4.7 90 - - - - 0.0 - - - - - -
07/12/2018 4:30 4.8 89 - - - - 0.0 - - - - - -
07/12/2018 4:40 5.2 87 - - - - 0.0 - - - - - -
07/12/2018 4:50 4.8 88 - - - - 0.0 - - - - - -
07/12/2018 5:00 4.6 89 - - - - 0.0 - - - - - -
07/12/2018 5:10 4.8 88 - - - - 0.0 - - - - - -
07/12/2018 5:20 4.5 89 - - - - 0.0 - - - - - -
07/12/2018 5:30 4.3 90 - - - - 0.0 - - - - - -
07/12/2018 5:40 4.5 89 - - - - 0.0 - - - - - -
07/12/2018 5:50 4.6 87 - - - - 0.0 - - - - - -
07/12/2018 6:00 5.2 83 - - - - 0.0 - - - - - -
07/12/2018 6:10 5.4 81 - - - - 0.0 - - - - - -
07/12/2018 6:20 5.2 81 - - - - 0.0 - - - - - -
07/12/2018 6:30 5.0 81 - - - - 0.0 - - - - - -
07/12/2018 6:40 5.2 79 - - - - 0.0 - - - - - -
07/12/2018 6:50 4.9 79 - - - - 0.0 - - - - - -
07/12/2018 7:00 4.6 82 - - - - 0.0 - - - - - -
07/12/2018 7:10 4.7 80 - - - - 0.0 - - - - - -
07/12/2018 7:20 5.0 77 - - - - 0.0 - - - - - -
07/12/2018 7:30 4.8 79 - - - - 0.0 - - - - - -
07/12/2018 7:40 5.3 75 - - - - 0.0 - - - - - -
07/12/2018 7:50 5.7 72 - - - - 0.0 - - - - - -
07/12/2018 8:00 5.4 74 - - - - 0.0 - - - - - -
07/12/2018 8:10 5.9 71 - - - - 0.0 - - - - - -
07/12/2018 8:20 5.6 73 - - - - 0.0 - - - - - -
07/12/2018 8:30 5.9 72 - - - - 0.0 - - - - - -
07/12/2018 8:40 7.9 65 - - - - 0.0 - - - - - -
07/12/2018 8:50 8.6 65 - - - - 0.0 - - - - - -
07/12/2018 9:00 8.8 65 - - - - 0.0 - - - - - -
07/12/2018 9:10 9.0 64 - - - - 0.0 - - - - - -
07/12/2018 9:20 9.7 63 - - - - 0.0 - - - - - -
07/12/2018 9:30 10.2 63 - - - - 0.0 - - - - - -
07/12/2018 9:40 10.1 64 - - - - 0.0 - - - - - -
07/12/2018 9:50 11.2 58 - - - - 0.0 - - - - - -
07/12/2018 10:00 11.3 58 - - - - 0.0 - - - - - -
07/12/2018 10:10 10.9 64 - - - - 0.0 - - - - - -
07/12/2018 10:20 11.7 63 - - - - 0.0 - - - - - -
07/12/2018 10:30 12.0 61 - - - - 0.0 - - - - - -
07/12/2018 10:40 12.1 60 - - - - 0.0 - - - - - -
07/12/2018 10:50 11.9 60 - - - - 0.0 - - - - - -
07/12/2018 11:00 12.2 60 - - - - 0.0 - - - - - -
07/12/2018 11:10 13.2 58 - - - - 0.0 - - - - - -
07/12/2018 11:20 13.8 56 - - - - 0.0 - - - - - -
07/12/2018 11:30 13.9 56 - - - - 0.0 - - - - - -
07/12/2018 11:40 14.4 52 - - - - 0.0 - - - - - -
07/12/2018 11:50 14.4 51 - - - - 0.0 - - - - - -
07/12/2018 12:00 15.4 51 - - - - 0.0 - - - - - -
07/12/2018 12:10 15.9 51 - - - - 0.0 - - - - - -
07/12/2018 12:20 16.1 49 - - - - 0.0 - - - - - -
07/12/2018 12:30 16.4 49 - - - - 0.0 - - - - - -
07/12/2018 12:40 16.6 48 - - - - 0.0 - - - - - -
07/12/2018 12:50 15.8 48 - - - - 0.0 - - - - - -
07/12/2018 13:00 14.6 51 - - - - 0.0 - - - - - -
07/12/2018 13:10 14.2 53 - - - - 0.0 - - - - - -
07/12/2018 13:20 14.0 52 - - - - 0.0 - - - - - -
07/12/2018 13:30 13.9 53 - - - - 0.0 - - - - - -
07/12/2018 13:40 13.5 54 - - - - 0.0 - - - - - -
07/12/2018 13:50 13.4 54 - - - - 0.0 - - - - - -
07/12/2018 14:00 13.4 56 - - - - 0.0 - - - - - -
07/12/2018 14:10 13.3 57 - - - - 0.0 - - - - - -
07/12/2018 14:20 13.2 58 - - - - 0.0 - - - - - -
07/12/2018 14:30 13.2 59 - - - - 0.0 - - - - - -
07/12/2018 14:40 13.1 61 - - - - 0.0 - - - - - -
07/12/2018 14:50 13.0 62 - - - - 0.0 - - - - - -
07/12/2018 15:00 12.9 64 - - - - 0.0 - - - - - -
07/12/2018 15:10 12.6 67 - - - - 0.0 - - - - - -
07/12/2018 15:20 12.1 73 - - - - 0.0 - - - - - -
07/12/2018 15:30 11.5 79 - - - - 0.0 - - - - - -
07/12/2018 15:40 11.3 81 - - - - 0.0 - - - - - -
07/12/2018 15:50 11.2 83 - - - - 0.0 - - - - - -
07/12/2018 16:00 10.9 86 - - - - 0.0 - - - - - -
07/12/2018 16:10 10.8 86 - - - - 0.0 - - - - - -
07/12/2018 16:20 10.9 86 - - - - 0.0 - - - - - -
07/12/2018 16:30 10.8 87 - - - - 0.0 - - - - - -
07/12/2018 16:40 10.4 89 - - - - 0.1 - - - - - -
07/12/2018 16:50 10.1 93 - - - - 0.4 - - - - - -
07/12/2018 17:00 9.8 98 - - - - 0.3 - - - - - -
07/12/2018 17:10 9.7 100 - - - - 0.3 - - - - - -
07/12/2018 17:20 9.5 100 - - - - 0.2 - - - - - -
07/12/2018 17:30 9.4 100 - - - - 0.1 - - - - - -
07/12/2018 17:40 9.3 100 - - - - 0.1 - - - - - -
07/12/2018 17:50 9.2 100 - - - - 0.3 - - - - - -
07/12/2018 18:00 9.2 100 - - - - 0.2 - - - - - -
07/12/2018 18:10 9.1 100 - - - - 0.3 - - - - - -
07/12/2018 18:20 9.1 100 - - - - 0.3 - - - - - -
07/12/2018 18:30 9.1 100 - - - - 0.3 - - - - - -
07/12/2018 18:40 9.0 100 - - - - 0.2 - - - - - -
07/12/2018 18:50 8.9 100 - - - - 0.4 - - - - - -
07/12/2018 19:00 8.3 100 - - - - 0.2 - - - - - -
07/12/2018 19:10 8.0 100 - - - - 0.1 - - - - - -
07/12/2018 19:20 7.9 100 - - - - 0.2 - - - - - -
07/12/2018 19:30 7.9 100 - - - - 0.2 - - - - - -
07/12/2018 19:40 7.8 100 - - - - 0.4 - - - - - -
07/12/2018 19:50 7.7 100 - - - - 0.3 - - - - - -
07/12/2018 20:00 7.4 100 - - - - 0.1 - - - - - -
07/12/2018 20:10 7.2 100 - - - - 0.1 - - - - - -
07/12/2018 20:20 7.0 100 - - - - 0.1 - - - - - -
07/12/2018 20:30 7.0 100 - - - - 0.0 - - - - - -
07/12/2018 20:40 7.0 100 - - - - 0.0 - - - - - -
07/12/2018 20:50 7.1 99 - - - - 0.1 - - - - - -
07/12/2018 21:00 7.0 99 - - - - 0.0 - - - - - -
07/12/2018 21:10 7.0 98 - - - - 0.0 - - - - - -
07/12/2018 21:20 7.0 99 - - - - 0.0 - - - - - -
07/12/2018 21:30 6.9 100 - - - - 0.1 - - - - - -
07/12/2018 21:40 6.9 100 - - - - 0.1 - - - - - -
07/12/2018 21:50 6.8 100 - - - - 0.1 - - - - - -
07/12/2018 22:00 6.9 100 - - - - 0.1 - - - - - -
07/12/2018 22:10 6.9 100 - - - - 0.4 - - - - - -
07/12/2018 22:20 6.8 100 - - - - 0.1 - - - - - -
07/12/2018 22:30 6.8 100 - - - - 0.0 - - - - - -
07/12/2018 22:40 6.8 100 - - - - 0.0 - - - - - -
07/12/2018 22:50 6.8 100 - - - - 0.0 - - - - - -
07/12/2018 23:00 6.9 100 - - - - 0.0 - - - - - -
07/12/2018 23:10 7.0 100 - - - - 0.0 - - - - - -
07/12/2018 23:20 7.0 100 - - - - 0.0 - - - - - -
07/12/2018 23:30 7.0 99 - - - - 0.0 - - - - - -
07/12/2018 23:40 7.1 99 - - - - 0.0 - - - - - -
07/12/2018 23:50 7.0 99 - - - - 0.0 - - - - - -
Anterior Página 1 de 1 Siguiente

NOTA: Tipo de datos según el color:
   - Valores diarios o 10 minutos correctos
   - Valores diarios calculados a partir de un número de datos 10 minutos menor que 144 y mayor que 120, o de un número de datos semihorarios menor que 48 y mayor que 40 (caso de las estaciones de Riegos de Navarra y del MARM)
   - Valores diez minutos estimados


Contacto        Enlaces        Aviso legal